createdAt,value
2018-09-08T00:00:19.083Z,1012.24
2018-09-08T00:01:19.104Z,1012.27
2018-09-08T00:02:19.127Z,1012.26
2018-09-08T00:03:19.150Z,1012.28
2018-09-08T00:04:19.173Z,1012.26
2018-09-08T00:05:19.195Z,1012.24
2018-09-08T00:06:19.218Z,1012.25
2018-09-08T00:07:19.241Z,1012.25
2018-09-08T00:08:19.266Z,1012.27
2018-09-08T00:09:19.285Z,1012.3
2018-09-08T00:11:19.331Z,1012.29
2018-09-08T00:12:19.355Z,1012.28
2018-09-08T00:13:19.375Z,1012.27
2018-09-08T00:14:19.400Z,1012.29
2018-09-08T00:15:19.422Z,1012.27
2018-09-08T00:16:19.443Z,1012.31
2018-09-08T00:17:19.467Z,1012.35
2018-09-08T00:18:19.490Z,1012.34
2018-09-08T00:19:19.512Z,1012.35
2018-09-08T00:20:19.535Z,1012.32
2018-09-08T00:21:19.557Z,1012.33
2018-09-08T00:22:19.578Z,1012.34
2018-09-08T00:23:19.602Z,1012.34
2018-09-08T00:24:19.623Z,1012.32
2018-09-08T00:25:19.647Z,1012.29
2018-09-08T00:26:19.670Z,1012.3
2018-09-08T00:27:19.692Z,1012.28
2018-09-08T00:28:19.713Z,1012.36
2018-09-08T00:29:19.737Z,1012.34
2018-09-08T00:30:19.759Z,1012.36
2018-09-08T00:31:19.782Z,1012.39
2018-09-08T00:32:19.805Z,1012.41
2018-09-08T00:33:19.827Z,1012.41
2018-09-08T00:34:19.848Z,1012.4
2018-09-08T00:35:19.872Z,1012.44
2018-09-08T00:36:19.894Z,1012.46
2018-09-08T00:37:19.917Z,1012.48
2018-09-08T00:38:19.990Z,1012.51
2018-09-08T00:39:19.962Z,1012.54
2018-09-08T00:40:19.983Z,1012.56
2018-09-08T00:41:20.008Z,1012.55
2018-09-08T00:43:20.052Z,1012.57
2018-09-08T00:44:20.073Z,1012.57
2018-09-08T00:45:20.097Z,1012.56
2018-09-08T00:46:20.119Z,1012.58
2018-09-08T00:47:20.141Z,1012.59
2018-09-08T00:48:20.174Z,1012.58
2018-09-08T00:49:20.188Z,1012.64
2018-09-08T00:50:20.211Z,1012.68
2018-09-08T00:51:20.231Z,1012.66
2018-09-08T00:52:20.259Z,1012.7
2018-09-08T00:53:20.275Z,1012.71
2018-09-08T00:54:20.298Z,1012.7
2018-09-08T00:55:20.320Z,1012.71
2018-09-08T00:56:20.342Z,1012.73
2018-09-08T00:57:20.365Z,1012.68
2018-09-08T00:59:20.409Z,1012.73
2018-09-08T01:00:20.431Z,1012.7
2018-09-08T01:01:20.456Z,1012.73
2018-09-08T01:02:20.476Z,1012.74
2018-09-08T01:03:20.497Z,1012.71
2018-09-08T01:04:20.520Z,1012.71
2018-09-08T01:05:20.543Z,1012.71
2018-09-08T01:06:20.565Z,1012.69
2018-09-08T01:07:20.586Z,1012.69
2018-09-08T01:08:20.611Z,1012.73
2018-09-08T01:09:20.632Z,1012.71
2018-09-08T01:10:20.660Z,1012.73
2018-09-08T01:11:20.677Z,1012.71
2018-09-08T01:12:20.697Z,1012.77
2018-09-08T01:13:20.722Z,1012.74
2018-09-08T01:15:20.765Z,1012.77
2018-09-08T01:16:20.787Z,1012.8
2018-09-08T01:17:20.810Z,1012.82
2018-09-08T01:18:20.832Z,1012.85
2018-09-08T01:19:20.854Z,1012.85
2018-09-08T01:20:20.877Z,1012.86
2018-09-08T01:21:20.899Z,1012.89
2018-09-08T01:22:20.920Z,1012.87
2018-09-08T01:23:20.945Z,1012.9
2018-09-08T01:24:20.964Z,1012.92
2018-09-08T01:25:20.990Z,1012.95
2018-09-08T01:26:21.013Z,1012.93
2018-09-08T01:27:21.032Z,1012.96
2018-09-08T01:28:21.054Z,1012.97
2018-09-08T01:29:21.076Z,1012.98
2018-09-08T01:31:21.120Z,1012.97
2018-09-08T01:32:21.143Z,1012.98
2018-09-08T01:33:21.166Z,1012.98
2018-09-08T01:34:21.187Z,1012.99
2018-09-08T01:35:21.210Z,1013.02
2018-09-08T01:36:21.231Z,1013.01
2018-09-08T01:37:21.254Z,1013.01
2018-09-08T01:38:21.276Z,1013.03
2018-09-08T01:39:21.298Z,1013
2018-09-08T01:40:21.319Z,1012.99
2018-09-08T01:41:21.342Z,1012.98
2018-09-08T01:42:21.365Z,1013.01
2018-09-08T01:43:21.386Z,1013.04
2018-09-08T01:44:21.410Z,1013.05
2018-09-08T01:46:21.455Z,1013.1
2018-09-08T01:47:21.475Z,1013.07
2018-09-08T01:48:21.498Z,1013.07
2018-09-08T01:49:21.524Z,1013.07
2018-09-08T01:50:21.543Z,1013.07
2018-09-08T01:51:21.565Z,1013.08
2018-09-08T01:52:21.586Z,1013.08
2018-09-08T01:53:21.608Z,1013.09
2018-09-08T01:54:21.630Z,1013.09
2018-09-08T01:55:21.652Z,1013.07
2018-09-08T01:56:21.676Z,1013.09
2018-09-08T01:57:21.698Z,1013.07
2018-09-08T01:58:21.724Z,1013.05
2018-09-08T01:59:21.742Z,1013.06
2018-09-08T02:00:21.764Z,1013.08
2018-09-08T02:01:21.786Z,1013.11
2018-09-08T02:02:21.807Z,1013.05
2018-09-08T02:03:21.830Z,1013.04
2018-09-08T02:04:21.853Z,1013.02
2018-09-08T02:05:21.874Z,1013.08
2018-09-08T02:06:21.896Z,1013.08
2018-09-08T02:07:21.917Z,1013.08
2018-09-08T02:08:21.942Z,1013.09
2018-09-08T02:09:21.961Z,1013.12
2018-09-08T02:10:21.984Z,1013.05
2018-09-08T02:11:22.006Z,1013.1
2018-09-08T02:12:22.030Z,1013.08
2018-09-08T02:13:22.051Z,1013.11
2018-09-08T02:14:22.072Z,1013.09
2018-09-08T02:15:22.096Z,1013.11
2018-09-08T02:16:22.120Z,1013.06
2018-09-08T02:18:22.161Z,1013.11
2018-09-08T02:19:22.183Z,1013.09
2018-09-08T02:20:22.204Z,1013.07
2018-09-08T02:21:22.226Z,1013.09
2018-09-08T02:22:22.249Z,1013.08
2018-09-08T02:23:22.270Z,1013.12
2018-09-08T02:24:22.292Z,1013.08
2018-09-08T02:25:22.470Z,1013.09
2018-09-08T02:26:22.340Z,1013.05
2018-09-08T02:27:22.359Z,1013.1
2018-09-08T02:28:22.381Z,1013.05
2018-09-08T02:29:22.403Z,1013.1
2018-09-08T02:30:22.426Z,1013.07
2018-09-08T02:31:22.448Z,1013.09
2018-09-08T02:32:22.473Z,1013.1
2018-09-08T02:34:22.513Z,1013.09
2018-09-08T02:35:22.535Z,1013.13
2018-09-08T02:36:22.558Z,1013.13
2018-09-08T02:37:22.580Z,1013.12
2018-09-08T02:38:22.600Z,1013.09
2018-09-08T02:39:22.623Z,1013.1
2018-09-08T02:40:22.646Z,1013.12
2018-09-08T02:41:22.666Z,1013.11
2018-09-08T02:42:22.688Z,1013.13
2018-09-08T02:43:22.712Z,1013.08
2018-09-08T02:44:22.734Z,1013.11
2018-09-08T02:45:22.757Z,1013.13
2018-09-08T02:46:22.776Z,1013.16
2018-09-08T02:47:22.801Z,1013.2
2018-09-08T02:48:22.822Z,1013.18
2018-09-08T02:50:22.873Z,1013.2
2018-09-08T02:51:22.890Z,1013.2
2018-09-08T02:52:22.911Z,1013.19
2018-09-08T02:53:22.933Z,1013.17
2018-09-08T02:54:22.957Z,1013.21
2018-09-08T02:55:22.974Z,1013.22
2018-09-08T02:56:22.997Z,1013.24
2018-09-08T02:57:23.023Z,1013.2
2018-09-08T02:58:23.143Z,1013.18
2018-09-08T02:59:23.064Z,1013.26
2018-09-08T03:00:23.089Z,1013.23
2018-09-08T03:01:23.108Z,1013.25
2018-09-08T03:02:23.129Z,1013.26
2018-09-08T03:03:23.152Z,1013.31
2018-09-08T03:04:23.173Z,1013.31
2018-09-08T03:06:23.218Z,1013.33
2018-09-08T03:07:23.240Z,1013.31
2018-09-08T03:08:23.261Z,1013.28
2018-09-08T03:09:23.283Z,1013.29
2018-09-08T03:10:23.306Z,1013.31
2018-09-08T03:11:23.329Z,1013.28
2018-09-08T03:12:23.347Z,1013.33
2018-09-08T03:13:23.376Z,1013.32
2018-09-08T03:14:23.393Z,1013.35
2018-09-08T03:15:23.415Z,1013.38
2018-09-08T03:16:23.436Z,1013.34
2018-09-08T03:17:23.458Z,1013.36
2018-09-08T03:18:23.482Z,1013.38
2018-09-08T03:19:23.504Z,1013.39
2018-09-08T03:21:23.546Z,1013.42
2018-09-08T03:22:23.568Z,1013.41
2018-09-08T03:23:23.589Z,1013.42
2018-09-08T03:24:23.614Z,1013.42
2018-09-08T03:25:23.634Z,1013.45
2018-09-08T03:26:23.654Z,1013.42
2018-09-08T03:27:23.678Z,1013.46
2018-09-08T03:28:23.700Z,1013.47
2018-09-08T03:29:23.720Z,1013.49
2018-09-08T03:30:23.745Z,1013.49
2018-09-08T03:31:23.770Z,1013.56
2018-09-08T03:32:23.786Z,1013.57
2018-09-08T03:33:23.807Z,1013.57
2018-09-08T03:34:23.832Z,1013.55
2018-09-08T03:35:23.857Z,1013.56
2018-09-08T03:36:23.875Z,1013.58
2018-09-08T03:37:23.895Z,1013.57
2018-09-08T03:38:23.917Z,1013.6
2018-09-08T03:39:23.939Z,1013.62
2018-09-08T03:40:23.959Z,1013.64
2018-09-08T03:41:23.983Z,1013.62
2018-09-08T03:42:24.004Z,1013.64
2018-09-08T03:43:24.026Z,1013.64
2018-09-08T03:44:24.047Z,1013.67
2018-09-08T03:45:24.069Z,1013.71
2018-09-08T03:46:24.091Z,1013.69
2018-09-08T03:47:24.114Z,1013.73
2018-09-08T03:48:24.134Z,1013.77
2018-09-08T03:49:24.156Z,1013.79
2018-09-08T03:50:24.178Z,1013.8
2018-09-08T03:51:24.198Z,1013.82
2018-09-08T03:53:24.242Z,1013.86
2018-09-08T03:54:24.264Z,1013.81
2018-09-08T03:55:24.285Z,1013.82
2018-09-08T03:56:24.305Z,1013.83
2018-09-08T03:57:24.328Z,1013.84
2018-09-08T03:58:24.350Z,1013.85
2018-09-08T03:59:24.371Z,1013.81
2018-09-08T04:00:24.392Z,1013.81
2018-09-08T04:01:24.415Z,1013.85
2018-09-08T04:02:24.435Z,1013.86
2018-09-08T04:03:24.457Z,1013.83
2018-09-08T04:04:24.477Z,1013.81
2018-09-08T04:05:24.502Z,1013.82
2018-09-08T04:06:24.521Z,1013.78
2018-09-08T04:07:24.543Z,1013.85
2018-09-08T04:09:24.587Z,1013.87
2018-09-08T04:10:24.606Z,1013.86
2018-09-08T04:11:24.662Z,1013.88
2018-09-08T04:12:24.650Z,1013.85
2018-09-08T04:13:24.670Z,1013.89
2018-09-08T04:14:24.692Z,1013.86
2018-09-08T04:15:24.714Z,1013.89
2018-09-08T04:16:24.738Z,1013.87
2018-09-08T04:17:24.757Z,1013.92
2018-09-08T04:18:24.777Z,1013.91
2018-09-08T04:19:24.803Z,1013.93
2018-09-08T04:20:24.822Z,1013.95
2018-09-08T04:21:24.842Z,1013.93
2018-09-08T04:22:24.865Z,1013.92
2018-09-08T04:23:24.884Z,1013.92
2018-09-08T04:25:24.928Z,1013.93
2018-09-08T04:26:24.948Z,1013.96
2018-09-08T04:27:24.970Z,1014.01
2018-09-08T04:28:24.992Z,1014.03
2018-09-08T04:29:25.039Z,1014.02
2018-09-08T04:30:25.037Z,1014.06
2018-09-08T04:31:25.057Z,1014.08
2018-09-08T04:32:25.077Z,1014.04
2018-09-08T04:33:25.097Z,1014.08
2018-09-08T04:34:25.119Z,1014.08
2018-09-08T04:35:25.141Z,1014.07
2018-09-08T04:36:25.160Z,1014.07
2018-09-08T04:37:25.185Z,1014.07
2018-09-08T04:38:25.206Z,1014.1
2018-09-08T04:39:25.226Z,1014.12
2018-09-08T04:41:25.266Z,1014.14
2018-09-08T04:42:25.287Z,1014.16
2018-09-08T04:43:25.314Z,1014.13
2018-09-08T04:44:25.329Z,1014.15
2018-09-08T04:45:25.349Z,1014.2
2018-09-08T04:46:25.373Z,1014.14
2018-09-08T04:47:25.393Z,1014.24
2018-09-08T04:48:25.413Z,1014.24
2018-09-08T04:49:25.436Z,1014.25
2018-09-08T04:50:25.456Z,1014.26
2018-09-08T04:51:25.481Z,1014.29
2018-09-08T04:52:25.502Z,1014.3
2018-09-08T04:53:25.519Z,1014.33
2018-09-08T04:54:25.541Z,1014.34
2018-09-08T04:56:25.584Z,1014.3
2018-09-08T04:57:25.604Z,1014.35
2018-09-08T04:58:25.624Z,1014.3
2018-09-08T04:59:25.651Z,1014.35
2018-09-08T05:00:25.669Z,1014.34
2018-09-08T05:01:25.688Z,1014.36
2018-09-08T05:02:25.795Z,1014.36
2018-09-08T05:03:25.731Z,1014.39
2018-09-08T05:04:25.751Z,1014.4
2018-09-08T05:05:25.773Z,1014.39
2018-09-08T05:06:25.795Z,1014.39
2018-09-08T05:07:25.816Z,1014.44
2018-09-08T05:08:25.837Z,1014.43
2018-09-08T05:09:25.858Z,1014.47
2018-09-08T05:10:25.880Z,1014.44
2018-09-08T05:11:25.901Z,1014.45
2018-09-08T05:12:25.922Z,1014.46
2018-09-08T05:13:25.942Z,1014.46
2018-09-08T05:14:25.964Z,1014.49
2018-09-08T05:15:25.986Z,1014.5
2018-09-08T05:16:26.005Z,1014.53
2018-09-08T05:17:26.027Z,1014.55
2018-09-08T05:18:26.051Z,1014.52
2018-09-08T05:19:26.069Z,1014.57
2018-09-08T05:20:26.091Z,1014.57
2018-09-08T05:21:26.113Z,1014.59
2018-09-08T05:22:26.134Z,1014.59
2018-09-08T05:23:26.154Z,1014.62
2018-09-08T05:24:26.177Z,1014.64
2018-09-08T05:25:26.200Z,1014.63
2018-09-08T05:26:26.218Z,1014.63
2018-09-08T05:28:26.264Z,1014.68
2018-09-08T05:29:26.283Z,1014.68
2018-09-08T05:30:26.304Z,1014.66
2018-09-08T05:31:26.325Z,1014.7
2018-09-08T05:32:26.348Z,1014.75
2018-09-08T05:33:26.370Z,1014.74
2018-09-08T05:34:26.391Z,1014.77
2018-09-08T05:35:26.413Z,1014.75
2018-09-08T05:36:26.436Z,1014.75
2018-09-08T05:37:26.456Z,1014.79
2018-09-08T05:38:26.482Z,1014.85
2018-09-08T05:39:26.500Z,1014.88
2018-09-08T05:40:26.523Z,1014.85
2018-09-08T05:41:26.544Z,1014.8
2018-09-08T05:42:26.564Z,1014.84
2018-09-08T05:44:26.610Z,1014.82
2018-09-08T05:45:26.630Z,1014.87
2018-09-08T05:46:26.654Z,1014.89
2018-09-08T05:47:26.676Z,1014.88
2018-09-08T05:48:26.696Z,1014.85
2018-09-08T05:49:26.718Z,1014.9
2018-09-08T05:50:26.741Z,1014.91
2018-09-08T05:51:26.765Z,1015.1
2018-09-08T05:52:26.787Z,1015.26
2018-09-08T05:53:26.809Z,1015.35
2018-09-08T05:54:26.832Z,1015.34
2018-09-08T05:55:26.855Z,1015.34
2018-09-08T05:56:26.881Z,1015.38
2018-09-08T05:57:26.902Z,1015.37
2018-09-08T05:58:26.992Z,1015.43
2018-09-08T06:00:26.973Z,1015.45
2018-09-08T06:01:26.997Z,1015.54
2018-09-08T06:02:27.023Z,1015.53
2018-09-08T06:03:27.047Z,1015.55
2018-09-08T06:04:27.072Z,1015.61
2018-09-08T06:05:27.098Z,1015.67
2018-09-08T06:06:27.124Z,1015.69
2018-09-08T06:07:27.149Z,1015.75
2018-09-08T06:08:27.178Z,1015.79
2018-09-08T06:09:27.200Z,1015.82
2018-09-08T06:10:27.230Z,1015.85
2018-09-08T06:11:27.254Z,1015.85
2018-09-08T06:12:27.283Z,1015.82
2018-09-08T06:13:27.311Z,1015.87
2018-09-08T06:14:27.344Z,1015.94
2018-09-08T06:16:27.394Z,1015.96
2018-09-08T06:17:27.524Z,1015.98
2018-09-08T06:18:27.448Z,1016.01
2018-09-08T06:19:27.485Z,1016.11
2018-09-08T06:20:27.508Z,1016.06
2018-09-08T06:21:27.536Z,1016.09
2018-09-08T06:22:27.566Z,1016.18
2018-09-08T06:23:27.596Z,1016.25
2018-09-08T06:24:27.712Z,1016.28
2018-09-08T06:25:27.665Z,1016.31
2018-09-08T06:26:27.688Z,1016.35
2018-09-08T06:27:27.716Z,1016.45
2018-09-08T06:28:27.824Z,1016.55
2018-09-08T06:29:27.777Z,1016.57
2018-09-08T06:31:27.839Z,1016.65
2018-09-08T06:32:27.868Z,1016.73
2018-09-08T06:33:27.915Z,1016.76
2018-09-08T06:34:27.932Z,1016.81
2018-09-08T06:35:27.977Z,1016.86
2018-09-08T06:36:27.994Z,1016.88
2018-09-08T06:37:28.027Z,1016.89
2018-09-08T06:38:28.057Z,1016.93
2018-09-08T06:39:28.090Z,1016.92
2018-09-08T06:40:28.121Z,1017.02
2018-09-08T06:41:28.154Z,1016.96
2018-09-08T06:42:28.190Z,1016.98
2018-09-08T06:43:28.218Z,1016.93
2018-09-08T06:44:28.251Z,1016.94
2018-09-08T06:45:28.283Z,1016.91
2018-09-08T06:46:28.316Z,1016.95
2018-09-08T06:47:28.348Z,1016.97
2018-09-08T06:48:28.381Z,1016.94
2018-09-08T06:49:28.414Z,1016.92
2018-09-08T06:50:28.445Z,1016.97
2018-09-08T06:51:28.479Z,1016.96
2018-09-08T06:52:28.512Z,1016.89
2018-09-08T06:53:28.545Z,1016.87
2018-09-08T06:54:28.585Z,1016.86
2018-09-08T06:55:28.610Z,1016.87
2018-09-08T06:56:28.644Z,1016.88
2018-09-08T06:57:28.677Z,1016.84
2018-09-08T06:58:28.710Z,1016.75
2018-09-08T06:59:28.745Z,1016.67
2018-09-08T07:00:28.778Z,1016.69
2018-09-08T07:01:28.811Z,1016.64
2018-09-08T07:03:28.950Z,1016.64
2018-09-08T07:04:28.913Z,1016.55
2018-09-08T07:05:28.945Z,1016.55
2018-09-08T07:06:28.979Z,1016.55
2018-09-08T07:07:29.013Z,1016.56
2018-09-08T07:08:29.047Z,1016.54
2018-09-08T07:09:29.080Z,1016.56
2018-09-08T07:10:29.114Z,1016.51
2018-09-08T07:11:29.148Z,1016.52
2018-09-08T07:12:29.181Z,1016.53
2018-09-08T07:13:29.215Z,1016.49
2018-09-08T07:14:29.248Z,1016.58
2018-09-08T07:15:29.283Z,1016.55
2018-09-08T07:16:29.317Z,1016.57
2018-09-08T07:17:29.351Z,1016.57
2018-09-08T07:19:29.420Z,1016.53
2018-09-08T07:20:29.453Z,1016.54
2018-09-08T07:21:29.487Z,1016.56
2018-09-08T07:22:29.523Z,1016.54
2018-09-08T07:23:29.556Z,1016.5
2018-09-08T07:24:29.589Z,1016.5
2018-09-08T07:25:29.624Z,1016.51
2018-09-08T07:26:29.657Z,1016.5
2018-09-08T07:27:29.693Z,1016.45
2018-09-08T07:28:29.727Z,1016.44
2018-09-08T07:29:29.760Z,1016.37
2018-09-08T07:30:29.796Z,1016.24
2018-09-08T07:31:29.830Z,1016.2
2018-09-08T07:32:29.864Z,1016.25
2018-09-08T07:33:29.900Z,1016.21
2018-09-08T07:35:29.967Z,1016.24
2018-09-08T07:36:30.006Z,1016.17
2018-09-08T07:37:30.079Z,1016.22
2018-09-08T07:38:30.070Z,1016.26
2018-09-08T07:39:30.103Z,1016.25
2018-09-08T07:40:30.138Z,1016.25
2018-09-08T07:41:30.172Z,1016.25
2018-09-08T07:42:30.206Z,1016.29
2018-09-08T07:43:30.244Z,1016.24
2018-09-08T07:44:30.276Z,1016.24
2018-09-08T07:45:30.307Z,1016.22
2018-09-08T07:46:30.346Z,1016.21
2018-09-08T07:47:30.376Z,1016.17
2018-09-08T07:48:30.412Z,1016.2
2018-09-08T07:49:30.445Z,1016.14
2018-09-08T07:51:30.516Z,1016.14
2018-09-08T07:52:30.546Z,1016.06
2018-09-08T07:53:30.670Z,1016.07
2018-09-08T07:54:30.612Z,1016.05
2018-09-08T07:55:30.647Z,1015.98
2018-09-08T07:56:30.680Z,1015.99
2018-09-08T07:57:30.714Z,1015.95
2018-09-08T07:58:30.748Z,1015.9
2018-09-08T07:59:30.781Z,1015.97
2018-09-08T08:00:30.815Z,1015.95
2018-09-08T08:01:30.849Z,1015.93
2018-09-08T08:02:30.882Z,1015.87
2018-09-08T08:03:30.916Z,1015.92
2018-09-08T08:04:30.950Z,1015.92
2018-09-08T08:06:31.018Z,1015.88
2018-09-08T08:07:31.051Z,1015.87
2018-09-08T08:08:31.084Z,1015.89
2018-09-08T08:09:31.118Z,1015.85
2018-09-08T08:10:31.151Z,1015.88
2018-09-08T08:11:31.183Z,1015.84
2018-09-08T08:12:31.217Z,1015.85
2018-09-08T08:13:31.251Z,1015.84
2018-09-08T08:14:31.296Z,1015.84
2018-09-08T08:15:31.320Z,1015.77
2018-09-08T08:16:31.350Z,1015.91
2018-09-08T08:17:31.383Z,1015.83
2018-09-08T08:18:31.422Z,1015.83
2018-09-08T08:19:31.450Z,1015.87
2018-09-08T08:20:31.491Z,1015.83
2018-09-08T08:21:31.523Z,1015.8
2018-09-08T08:22:31.552Z,1015.81
2018-09-08T08:23:31.580Z,1015.85
2018-09-08T08:24:31.614Z,1015.81
2018-09-08T08:25:31.645Z,1015.77
2018-09-08T08:26:31.678Z,1015.8
2018-09-08T08:27:31.712Z,1015.79
2018-09-08T08:28:31.745Z,1015.83
2018-09-08T08:29:31.777Z,1015.81
2018-09-08T08:30:31.809Z,1015.79
2018-09-08T08:31:31.844Z,1015.81
2018-09-08T08:32:31.875Z,1015.79
2018-09-08T08:33:31.907Z,1015.76
2018-09-08T08:34:31.938Z,1015.78
2018-09-08T08:35:31.977Z,1015.8
2018-09-08T08:36:32.004Z,1015.8
2018-09-08T08:38:32.069Z,1015.8
2018-09-08T08:39:32.107Z,1015.85
2018-09-08T08:40:32.134Z,1015.9
2018-09-08T08:41:32.166Z,1015.86
2018-09-08T08:42:32.199Z,1015.85
2018-09-08T08:43:32.231Z,1015.88
2018-09-08T08:44:32.264Z,1015.86
2018-09-08T08:45:32.296Z,1015.89
2018-09-08T08:46:32.329Z,1015.87
2018-09-08T08:47:32.359Z,1015.88
2018-09-08T08:48:32.391Z,1015.87
2018-09-08T08:49:32.424Z,1015.96
2018-09-08T08:50:32.457Z,1015.94
2018-09-08T08:51:32.489Z,1015.95
2018-09-08T08:52:32.592Z,1015.88
2018-09-08T08:54:32.585Z,1015.91
2018-09-08T08:55:32.617Z,1015.86
2018-09-08T08:56:32.649Z,1015.86
2018-09-08T08:57:32.682Z,1015.89
2018-09-08T08:58:32.713Z,1015.88
2018-09-08T08:59:32.745Z,1015.89
2018-09-08T09:00:32.776Z,1015.9
2018-09-08T09:01:32.810Z,1015.92
2018-09-08T09:02:32.840Z,1015.93
2018-09-08T09:03:32.871Z,1015.93
2018-09-08T09:04:32.904Z,1015.94
2018-09-08T09:05:32.938Z,1015.91
2018-09-08T09:06:32.967Z,1015.91
2018-09-08T09:07:33.438Z,1015.97
2018-09-08T09:08:33.570Z,1015.99
2018-09-08T09:10:33.095Z,1015.98
2018-09-08T09:11:33.147Z,1015.97
2018-09-08T09:12:33.634Z,1015.88
2018-09-08T09:13:33.276Z,1015.98
2018-09-08T09:14:33.588Z,1015.94
2018-09-08T09:15:33.714Z,1015.94
2018-09-08T09:16:33.287Z,1015.97
2018-09-08T09:17:33.323Z,1015.96
2018-09-08T09:18:33.779Z,1015.88
2018-09-08T09:19:33.381Z,1015.88
2018-09-08T09:20:33.410Z,1015.91
2018-09-08T09:21:33.444Z,1015.85
2018-09-08T09:22:33.476Z,1015.9
2018-09-08T09:23:33.507Z,1015.92
2018-09-08T09:24:34.097Z,1015.95
2018-09-08T09:26:33.600Z,1015.94
2018-09-08T09:27:33.636Z,1015.91
2018-09-08T09:28:33.663Z,1016.02
2018-09-08T09:29:33.695Z,1016
2018-09-08T09:30:33.725Z,1015.94
2018-09-08T09:31:33.758Z,1015.87
2018-09-08T09:32:33.792Z,1015.9
2018-09-08T09:33:33.820Z,1015.91
2018-09-08T09:34:33.850Z,1015.93
2018-09-08T09:35:33.881Z,1015.87
2018-09-08T09:36:33.915Z,1016
2018-09-08T09:37:33.944Z,1015.95
2018-09-08T09:38:33.975Z,1015.94
2018-09-08T09:39:34.006Z,1015.95
2018-09-08T09:41:34.070Z,1015.89
2018-09-08T09:42:34.102Z,1015.86
2018-09-08T09:43:34.130Z,1016
2018-09-08T09:44:34.161Z,1015.89
2018-09-08T09:45:34.192Z,1015.95
2018-09-08T09:46:34.222Z,1015.85
2018-09-08T09:47:34.251Z,1015.8
2018-09-08T09:48:34.325Z,1015.77
2018-09-08T09:49:34.312Z,1015.76
2018-09-08T09:50:34.342Z,1015.8
2018-09-08T09:51:34.375Z,1015.74
2018-09-08T09:52:34.405Z,1015.73
2018-09-08T09:53:34.434Z,1015.71
2018-09-08T09:54:34.464Z,1015.7
2018-09-08T09:55:34.496Z,1015.74
2018-09-08T09:56:34.525Z,1015.68
2018-09-08T09:57:34.557Z,1015.69
2018-09-08T09:58:34.587Z,1015.74
2018-09-08T09:59:34.619Z,1015.76
2018-09-08T10:00:34.649Z,1015.65
2018-09-08T10:01:34.678Z,1015.64
2018-09-08T10:02:34.708Z,1015.67
2018-09-08T10:03:34.745Z,1015.69
2018-09-08T10:04:34.768Z,1015.67
2018-09-08T10:05:34.798Z,1015.67
2018-09-08T10:06:34.910Z,1015.64
2018-09-08T10:07:34.860Z,1015.65
2018-09-08T10:08:34.889Z,1015.63
2018-09-08T10:09:34.923Z,1015.6
2018-09-08T10:10:34.951Z,1015.63
2018-09-08T10:11:34.979Z,1015.66
2018-09-08T10:13:35.040Z,1015.59
2018-09-08T10:14:35.074Z,1015.62
2018-09-08T10:15:35.098Z,1015.59
2018-09-08T10:16:35.130Z,1015.67
2018-09-08T10:17:35.158Z,1015.61
2018-09-08T10:18:35.191Z,1015.56
2018-09-08T10:19:35.219Z,1015.53
2018-09-08T10:20:35.248Z,1015.61
2018-09-08T10:21:35.279Z,1015.64
2018-09-08T10:22:35.309Z,1015.6
2018-09-08T10:23:35.377Z,1015.56
2018-09-08T10:24:35.369Z,1015.53
2018-09-08T10:25:35.399Z,1015.59
2018-09-08T10:26:35.427Z,1015.58
2018-09-08T10:27:35.457Z,1015.6
2018-09-08T10:29:35.518Z,1015.57
2018-09-08T10:30:35.702Z,1015.6
2018-09-08T10:31:35.574Z,1015.58
2018-09-08T10:32:35.604Z,1015.56
2018-09-08T10:33:35.633Z,1015.61
2018-09-08T10:34:35.740Z,1015.55
2018-09-08T10:35:35.691Z,1015.65
2018-09-08T10:36:35.722Z,1015.64
2018-09-08T10:37:35.747Z,1015.64
2018-09-08T10:38:35.776Z,1015.54
2018-09-08T10:39:35.806Z,1015.55
2018-09-08T10:40:35.835Z,1015.52
2018-09-08T10:41:35.865Z,1015.59
2018-09-08T10:42:35.893Z,1015.69
2018-09-08T10:43:35.922Z,1015.67
2018-09-08T10:45:35.978Z,1015.66
2018-09-08T10:46:36.007Z,1015.59
2018-09-08T10:47:36.035Z,1015.53
2018-09-08T10:48:36.061Z,1015.54
2018-09-08T10:49:36.090Z,1015.53
2018-09-08T10:50:36.117Z,1015.48
2018-09-08T10:51:36.147Z,1015.52
2018-09-08T10:52:36.173Z,1015.52
2018-09-08T10:53:36.201Z,1015.58
2018-09-08T10:54:36.229Z,1015.57
2018-09-08T10:55:36.256Z,1015.57
2018-09-08T10:56:36.285Z,1015.58
2018-09-08T10:57:36.311Z,1015.62
2018-09-08T10:58:36.339Z,1015.62
2018-09-08T10:59:36.366Z,1015.58
2018-09-08T11:01:36.594Z,1015.59
2018-09-08T11:02:36.640Z,1015.56
2018-09-08T11:03:36.475Z,1015.57
2018-09-08T11:04:36.504Z,1015.56
2018-09-08T11:05:36.530Z,1015.56
2018-09-08T11:06:36.557Z,1015.57
2018-09-08T11:07:36.584Z,1015.56
2018-09-08T11:08:36.612Z,1015.6
2018-09-08T11:09:36.640Z,1015.64
2018-09-08T11:10:36.665Z,1015.61
2018-09-08T11:11:36.692Z,1015.7
2018-09-08T11:12:36.721Z,1015.65
2018-09-08T11:13:36.747Z,1015.7
2018-09-08T11:14:36.775Z,1015.68
2018-09-08T11:16:36.828Z,1015.67
2018-09-08T11:17:36.855Z,1015.62
2018-09-08T11:18:36.882Z,1015.62
2018-09-08T11:19:36.908Z,1015.56
2018-09-08T11:20:36.936Z,1015.6
2018-09-08T11:21:36.962Z,1015.61
2018-09-08T11:22:36.989Z,1015.69
2018-09-08T11:23:37.018Z,1015.59
2018-09-08T11:24:37.042Z,1015.59
2018-09-08T11:25:37.070Z,1015.61
2018-09-08T11:26:37.097Z,1015.62
2018-09-08T11:27:37.122Z,1015.58
2018-09-08T11:28:37.149Z,1015.61
2018-09-08T11:29:37.176Z,1015.65
2018-09-08T11:30:37.240Z,1015.52
2018-09-08T11:31:37.234Z,1015.56
2018-09-08T11:32:37.256Z,1015.59
2018-09-08T11:33:37.283Z,1015.67
2018-09-08T11:34:37.310Z,1015.66
2018-09-08T11:35:37.335Z,1015.71
2018-09-08T11:36:37.363Z,1015.71
2018-09-08T11:37:37.389Z,1015.76
2018-09-08T11:38:37.417Z,1015.77
2018-09-08T11:39:37.442Z,1015.75
2018-09-08T11:40:37.469Z,1015.69
2018-09-08T11:41:37.496Z,1015.7
2018-09-08T11:42:37.623Z,1015.71
2018-09-08T11:43:37.548Z,1015.69
2018-09-08T11:44:37.577Z,1015.67
2018-09-08T11:45:37.602Z,1015.61
2018-09-08T11:46:37.627Z,1015.69
2018-09-08T11:48:37.680Z,1015.73
2018-09-08T11:49:37.803Z,1015.78
2018-09-08T11:50:37.733Z,1015.71
2018-09-08T11:51:37.762Z,1015.79
2018-09-08T11:52:37.786Z,1015.73
2018-09-08T11:53:37.816Z,1015.68
2018-09-08T11:54:37.838Z,1015.69
2018-09-08T11:55:37.945Z,1015.68
2018-09-08T11:56:37.892Z,1015.65
2018-09-08T11:57:37.918Z,1015.71
2018-09-08T11:58:37.943Z,1015.63
2018-09-08T11:59:38.078Z,1015.62
2018-09-08T12:00:37.997Z,1015.63
2018-09-08T12:01:38.019Z,1015.63
2018-09-08T12:02:38.046Z,1015.59
2018-09-08T12:04:38.099Z,1015.61
2018-09-08T12:05:38.125Z,1015.55
2018-09-08T12:06:38.150Z,1015.56
2018-09-08T12:07:38.177Z,1015.55
2018-09-08T12:08:38.203Z,1015.62
2018-09-08T12:09:38.228Z,1015.62
2018-09-08T12:10:38.294Z,1015.59
2018-09-08T12:11:38.282Z,1015.58
2018-09-08T12:12:38.307Z,1015.63
2018-09-08T12:13:38.333Z,1015.61
2018-09-08T12:14:38.360Z,1015.63
2018-09-08T12:15:38.387Z,1015.66
2018-09-08T12:16:38.412Z,1015.58
2018-09-08T12:17:38.438Z,1015.59
2018-09-08T12:18:38.464Z,1015.66
2018-09-08T12:20:38.516Z,1015.62
2018-09-08T12:21:38.546Z,1015.59
2018-09-08T12:22:38.567Z,1015.61
2018-09-08T12:23:38.593Z,1015.6
2018-09-08T12:24:38.623Z,1015.64
2018-09-08T12:25:38.646Z,1015.66
2018-09-08T12:26:38.671Z,1015.63
2018-09-08T12:27:38.697Z,1015.6
2018-09-08T12:28:38.722Z,1015.73
2018-09-08T12:29:38.755Z,1015.62
2018-09-08T12:30:38.835Z,1015.62
2018-09-08T12:31:38.806Z,1015.65
2018-09-08T12:32:38.827Z,1015.62
2018-09-08T12:33:38.852Z,1015.61
2018-09-08T12:34:38.879Z,1015.62
2018-09-08T12:36:38.932Z,1015.51
2018-09-08T12:37:39.008Z,1015.53
2018-09-08T12:38:39.063Z,1015.54
2018-09-08T12:39:39.009Z,1015.57
2018-09-08T12:40:39.036Z,1015.58
2018-09-08T12:41:39.061Z,1015.57
2018-09-08T12:42:39.088Z,1015.65
2018-09-08T12:43:39.113Z,1015.58
2018-09-08T12:44:39.139Z,1015.63
2018-09-08T12:45:39.165Z,1015.59
2018-09-08T12:46:39.190Z,1015.56
2018-09-08T12:47:39.216Z,1015.57